Погода Сан Готардона 2 недели

Минас-Жерайс, Бразилия

17 - 30 июля
  • 17июля
    Сегодня
    +14°
    +26°
    Небольшая облачность
    ВремяПогодаТемператураВлажностьДавлениеВетер, м/сВероятность осадков
    00:00Ясно и безоблачно+17°C60 %691 мм1.3 м/с5 %
    03:00Ясно и безоблачно+13°C69 %690 мм1.9 м/с5 %
    06:00Ясно и безоблачно+14°C70 %690 мм1.3 м/с5 %
    09:00Ясно и безоблачно+18°C55 %692 мм1.7 м/с5 %
    12:00Ясно и безоблачно+22°C41 %692 мм1.2 м/с5 %
    15:00Небольшая облачность+25°C37 %690 мм1.2 м/с5 %
    18:00Практически безоблачно+22°C50 %690 мм2.1 м/с5 %
    21:00Небольшая облачность+20°C54 %690 мм2.0 м/с5 %
  • 18июля
    Четверг
    +13°
    +26°
    Небольшая облачность
    ВремяПогодаТемператураВлажностьДавлениеВетер, м/сВероятность осадков
    00:00Практически безоблачно+18°C57 %689 мм0.9 м/с5 %
    03:00Практически безоблачно+17°C59 %688 мм1.2 м/с5 %
    06:00Ясно и безоблачно+15°C63 %688 мм2.0 м/с5 %
    09:00Практически безоблачно+19°C50 %691 мм2.0 м/с5 %
    12:00Практически безоблачно+23°C38 %690 мм1.7 м/с5 %
    15:00Небольшая облачность+26°C34 %689 мм2.2 м/с5 %
    18:00Ясно и безоблачно+22°C45 %689 мм2.4 м/с5 %
    21:00Ясно и безоблачно+20°C52 %690 мм2.0 м/с5 %
  • 19июля
    Пятница
    +14°
    +26°
    Ясно и безоблачно
    ВремяПогодаТемператураВлажностьДавлениеВетер, м/сВероятность осадков
    00:00Ясно и безоблачно+17°C55 %689 мм2.3 м/с5 %
    03:00Ясно и безоблачно+16°C58 %689 мм2.8 м/с5 %
    06:00Ясно и безоблачно+14°C66 %689 мм2.5 м/с5 %
    09:00Ясно и безоблачно+19°C53 %692 мм2.2 м/с5 %
    12:00Ясно и безоблачно+23°C37 %692 мм2.5 м/с5 %
    15:00Ясно и безоблачно+26°C33 %691 мм2.0 м/с5 %
    18:00Ясно и безоблачно+22°C47 %690 мм2.5 м/с5 %
    21:00Ясно и безоблачно+19°C56 %691 мм1.3 м/с5 %
  • 20июля
    Суббота
    +11°
    +26°
    Ясно и безоблачно
    ВремяПогодаТемператураВлажностьДавлениеВетер, м/сВероятность осадков
    00:00Ясно и безоблачно+17°C60 %690 мм2.5 м/с5 %
    03:00Ясно и безоблачно+15°C65 %689 мм1.7 м/с5 %
    06:00Ясно и безоблачно+15°C68 %689 мм1.1 м/с5 %
    09:00Ясно и безоблачно+19°C54 %691 мм1.8 м/с5 %
    12:00Ясно и безоблачно+24°C39 %691 мм2.0 м/с5 %
    15:00Ясно и безоблачно+26°C31 %690 мм2.3 м/с5 %
    18:00Ясно и безоблачно+21°C47 %689 мм2.3 м/с5 %
    21:00Ясно и безоблачно+20°C53 %690 мм1.3 м/с5 %
  • 21июля
    Воскресенье
    +13°
    +25°
    Ясно и безоблачно
    ВремяПогодаТемператураВлажностьДавлениеВетер, м/сВероятность осадков
    00:00Ясно и безоблачно+18°C59 %689 мм2.6 м/с5 %
    03:00Ясно и безоблачно+14°C73 %688 мм2.2 м/с5 %
    06:00Ясно и безоблачно+13°C82 %688 мм2.2 м/с5 %
    09:00Ясно и безоблачно+18°C64 %691 мм2.2 м/с5 %
    12:00Ясно и безоблачно+22°C44 %691 мм2.4 м/с5 %
    15:00Ясно и безоблачно+25°C36 %689 мм2.4 м/с5 %
    18:00Ясно и безоблачно+21°C52 %689 мм2.1 м/с5 %
    21:00Ясно и безоблачно+19°C57 %690 мм0.5 м/с5 %
Мы используем cookies
Соглашаюсь